Time;durP1;ratioP1;P1;durP2;ratioP2;P2;SDS_P1;SDS_P2;PMS_P1;PMS_P2;Temp;Humidity;BMP_temperature;BMP_pressure;BME280_temperature;BME280_humidity;BME280_pressure;Samples;Min_cycle;Max_cycle;Signal;HPM_P1;HPM_P2
2022/10/15 00:00:34;;;;;;;;;5.00;4.75;;;;;17.10;100.00;100655.66;5075682;28;45536;-72
2022/10/15 00:02:59;;;;;;;;;7.75;7.25;;;;;16.94;100.00;100625.66;5069107;28;45537;-72
2022/10/15 00:05:25;;;;;;;;;4.75;4.75;;;;;17.12;100.00;100659.03;5090586;27;45712;-72
2022/10/15 00:07:50;;;;;;;;;7.00;5.50;;;;;17.13;100.00;100657.22;5075928;28;45450;-73
2022/10/15 00:10:16;;;;;;;;;6.50;6.50;;;;;17.01;100.00;100632.19;5068081;28;45399;-73
2022/10/15 00:12:42;;;;;;;;;5.00;5.00;;;;;17.11;100.00;100657.34;5070028;28;47077;-72
2022/10/15 00:15:09;;;;;;;;;5.75;5.75;;;;;17.10;100.00;100652.94;5051439;28;45578;-71
2022/10/15 00:17:35;;;;;;;;;5.50;5.50;;;;;17.07;100.00;100650.53;5075710;28;45951;-71
2022/10/15 00:20:04;;;;;;;;;7.50;6.75;;;;;17.09;100.00;100651.25;5075321;28;45303;-72
2022/10/15 00:22:29;;;;;;;;;7.00;7.00;;;;;17.09;100.00;100662.00;5074903;28;45653;-71
2022/10/15 00:24:55;;;;;;;;;7.00;7.00;;;;;16.83;100.00;100602.31;5057292;28;45442;-71
2022/10/15 00:27:20;;;;;;;;;5.00;5.00;;;;;16.96;100.00;100618.28;5069699;28;45406;-71
2022/10/15 00:29:46;;;;;;;;;7.50;7.25;;;;;17.10;100.00;100642.16;5075574;28;45428;-71
2022/10/15 00:32:11;;;;;;;;;5.25;5.25;;;;;17.11;100.00;100643.88;5075644;28;47118;-71
2022/10/15 00:34:36;;;;;;;;;4.67;4.67;;;;;17.10;100.00;100642.16;5074971;28;45493;-71
2022/10/15 00:37:02;;;;;;;;;9.75;7.25;;;;;16.86;100.00;100595.78;5056750;28;45488;-71
2022/10/15 00:39:27;;;;;;;;;7.50;7.50;;;;;17.10;100.00;100638.59;5069428;28;45444;-70
2022/10/15 00:41:53;;;;;;;;;8.00;8.00;;;;;16.87;100.00;100602.88;5074784;28;45308;-70
2022/10/15 00:44:21;;;;;;;;;8.75;7.75;;;;;17.09;100.00;100635.06;5075374;28;45385;-70
2022/10/15 00:47:33;;;;;;;;;7.25;6.25;;;;;17.01;100.00;100631.38;5075350;28;45370;-70
2022/10/15 00:50:04;;;;;;;;;7.00;7.00;;;;;17.04;100.00;100634.63;5051278;28;45552;-70
2022/10/15 00:52:36;;;;;;;;;8.50;8.50;;;;;17.02;100.00;100633.91;5074568;28;45686;-71
2022/10/15 00:55:09;;;;;;;;;6.00;6.00;;;;;17.02;100.00;100624.97;5068919;28;45382;-71
2022/10/15 00:57:35;;;;;;;;;7.50;7.25;;;;;16.97;100.00;100609.22;5074911;28;45417;-71
2022/10/15 01:00:11;;;;;;;;;6.50;5.75;;;;;16.97;100.00;100614.59;5074428;28;45322;-71
2022/10/15 01:02:36;;;;;;;;;5.50;5.50;;;;;16.92;100.00;100595.28;5088351;27;47615;-71
2022/10/15 01:05:02;;;;;;;;;8.75;5.75;;;;;16.95;100.00;100603.09;5077949;27;45337;-70
2022/10/15 01:07:28;;;;;;;;;5.75;5.75;;;;;16.96;100.00;100607.50;5089382;27;45302;-70
2022/10/15 01:09:53;;;;;;;;;5.00;5.00;;;;;16.98;100.00;100594.75;5087211;27;45364;-70
2022/10/15 01:12:26;;;;;;;;;5.00;5.00;;;;;16.98;100.00;100600.16;5086872;27;46132;-70
2022/10/15 01:15:08;;;;;;;;;4.50;3.50;;;;;16.67;100.00;100543.56;5078462;27;45870;-71
2022/10/15 01:18:02;;;;;;;;;4.00;4.00;;;;;16.96;100.00;100599.41;5108894;27;45442;-73
2022/10/15 01:20:49;;;;;;;;;4.75;4.50;;;;;16.93;100.00;100581.69;5089514;27;45432;-71
2022/10/15 01:23:48;;;;;;;;;6.00;6.00;;;;;16.90;100.00;100581.97;5078405;27;45564;-71
2022/10/15 01:26:39;;;;;;;;;5.25;5.25;;;;;16.09;100.00;100442.72;5084511;27;45282;-71
2022/10/15 01:29:33;;;;;;;;;5.00;5.00;;;;;16.93;100.00;100575.44;5092056;27;45312;-71
2022/10/15 01:31:58;;;;;;;;;4.75;4.75;;;;;16.93;100.00;100578.97;5083673;27;45473;-71
2022/10/15 01:34:30;;;;;;;;;5.25;5.25;;;;;16.93;100.00;100570.06;5082836;27;47249;-71
2022/10/15 01:37:08;;;;;;;;;3.00;3.00;;;;;16.91;100.00;100561.25;5090471;27;45428;-70
2022/10/15 01:39:40;;;;;;;;;4.00;4.00;;;;;16.82;100.00;100531.41;5064774;27;45464;-71
2022/10/15 01:42:17;;;;;;;;;3.00;3.00;;;;;16.91;100.00;100545.09;5084278;27;45466;-71
2022/10/15 01:44:49;;;;;;;;;2.67;2.67;;;;;16.92;100.00;100550.34;5083207;27;45474;-70
2022/10/15 01:47:41;;;;;;;;;2.00;2.00;;;;;16.90;100.00;100544.25;5074783;27;45440;-71
2022/10/15 01:50:09;;;;;;;;;3.00;3.00;;;;;16.88;100.00;100543.47;5012758;28;45355;-71
2022/10/15 01:52:39;;;;;;;;;2.00;2.00;;;;;16.88;100.00;100542.63;5012593;28;45339;-71
2022/10/15 01:55:08;;;;;;;;;2.00;2.00;;;;;16.79;100.00;100518.22;5012217;28;47088;-71
2022/10/15 01:57:35;;;;;;;;;1.67;1.00;;;;;16.88;100.00;100523.78;5012842;28;45463;-71
2022/10/15 02:00:03;;;;;;;;;2.00;2.00;;;;;16.88;100.00;100529.16;5011794;28;45494;-71
2022/10/15 02:02:28;;;;;;;;;2.00;2.00;;;;;16.84;100.00;100517.81;5012109;28;45422;-71
2022/10/15 02:04:53;;;;;;;;;1.67;1.67;;;;;16.84;100.00;100514.28;5012174;28;46153;-71
2022/10/15 02:07:33;;;;;;;;;2.00;2.00;;;;;16.84;100.00;100506.19;5012486;28;45323;-71
2022/10/15 02:10:20;;;;;;;;;1.00;1.00;;;;;16.83;100.00;100502.66;5012541;28;45543;-71
2022/10/15 02:12:52;;;;;;;;;3.00;2.00;;;;;16.84;100.00;100495.41;5022386;28;45503;-71
2022/10/15 02:15:44;;;;;;;;;1.00;1.00;;;;;16.80;100.00;100495.69;5031747;28;47048;-71
2022/10/15 02:18:18;;;;;;;;;3.00;2.00;;;;;16.84;100.00;100500.81;5031821;28;45410;-71
2022/10/15 02:20:54;;;;;;;;;1.00;1.00;;;;;16.87;100.00;100489.75;5032503;28;45389;-71
2022/10/15 02:23:26;;;;;;;;;0.33;0.33;;;;;16.88;100.00;100480.69;5022606;28;45626;-72
2022/10/15 02:25:53;;;;;;;;;0.67;0.67;;;;;16.92;100.00;100479.44;5015458;28;46680;-71
2022/10/15 02:28:21;;;;;;;;;1.00;1.00;;;;;16.85;100.00;100451.34;5074816;27;45362;-72
2022/10/15 02:30:51;;;;;;;;;2.00;1.00;;;;;16.91;100.00;100469.66;5074717;27;45408;-71
2022/10/15 02:33:19;;;;;;;;;1.00;1.00;;;;;16.92;100.00;100455.19;5074826;27;45367;-71
2022/10/15 02:35:47;;;;;;;;;1.00;1.00;;;;;16.91;100.00;100453.50;5074602;27;47373;-72
2022/10/15 02:38:17;;;;;;;;;0.00;0.00;;;;;16.91;100.00;100442.72;5074604;27;45455;-71
2022/10/15 02:40:43;;;;;;;;;1.33;0.67;;;;;16.94;100.00;100437.06;5075073;27;45445;-71
2022/10/15 02:43:11;;;;;;;;;1.00;1.00;;;;;16.94;100.00;100426.28;5074778;27;45353;-72
2022/10/15 02:45:37;;;;;;;;;0.00;0.00;;;;;16.93;100.00;100425.41;5074597;27;47315;-72
2022/10/15 02:48:03;;;;;;;;;2.00;1.67;;;;;16.95;100.00;100422.59;5074105;27;45476;-72
2022/10/15 02:50:28;;;;;;;;;1.00;1.00;;;;;16.96;100.00;100425.16;5056750;28;45327;-72
2022/10/15 02:52:53;;;;;;;;;1.00;0.00;;;;;17.01;100.00;100422.03;5075050;27;45309;-72
2022/10/15 02:55:19;;;;;;;;;1.00;1.00;;;;;16.89;100.00;100401.56;5073175;28;46041;-72
2022/10/15 02:57:44;;;;;;;;;1.00;1.00;;;;;17.02;100.00;100428.25;5074417;27;45593;-71
2022/10/15 03:00:10;;;;;;;;;0.67;0.67;;;;;16.97;100.00;100407.13;5078103;27;45374;-72
2022/10/15 03:02:35;;;;;;;;;0.67;0.67;;;;;17.01;100.00;100419.34;5059706;28;45504;-72
2022/10/15 03:05:01;;;;;;;;;1.00;1.00;;;;;17.00;100.00;100414.09;5077833;28;46828;-72
2022/10/15 03:07:26;;;;;;;;;0.00;0.00;;;;;16.97;100.00;100415.22;5059862;28;45386;-72
2022/10/15 03:09:51;;;;;;;;;0.67;0.67;;;;;16.97;100.00;100405.28;5072603;28;45448;-72
2022/10/15 03:12:17;;;;;;;;;1.00;1.00;;;;;16.94;100.00;100391.28;5054410;28;45506;-71
2022/10/15 03:14:42;;;;;;;;;1.67;0.67;;;;;16.91;100.00;100386.13;5075680;28;48041;-72
2022/10/15 03:17:07;;;;;;;;;2.00;1.00;;;;;16.99;100.00;100388.97;5058847;28;45719;-72
2022/10/15 03:19:33;;;;;;;;;1.00;1.00;;;;;17.02;100.00;100383.31;5077763;28;45455;-72
2022/10/15 03:21:58;;;;;;;;;0.00;0.00;;;;;17.04;100.00;100384.00;5077505;28;45510;-72
2022/10/15 03:24:23;;;;;;;;;0.00;0.00;;;;;17.07;100.00;100381.06;5077456;28;45428;-71
2022/10/15 03:26:49;;;;;;;;;0.00;0.00;;;;;16.73;100.00;100314.09;5077827;28;45459;-71
2022/10/15 03:29:14;;;;;;;;;0.00;0.00;;;;;17.09;100.00;100368.28;5059397;28;45444;-72
2022/10/15 03:31:39;;;;;;;;;0.33;0.33;;;;;17.12;100.00;100359.91;5070838;28;45490;-72
2022/10/15 03:34:05;;;;;;;;;1.00;1.00;;;;;17.10;100.00;100367.28;5057003;28;46088;-71
2022/10/15 03:36:30;;;;;;;;;0.33;0.33;;;;;17.12;100.00;100359.91;5061556;28;45440;-71
2022/10/15 03:38:56;;;;;;;;;0.33;0.33;;;;;17.12;100.00;100359.91;5077567;28;45427;-72
2022/10/15 03:41:21;;;;;;;;;0.00;0.00;;;;;17.10;100.00;100337.66;5077337;28;45485;-72
2022/10/15 03:43:46;;;;;;;;;0.00;0.00;;;;;17.15;100.00;100345.28;5058748;28;46400;-72
2022/10/15 03:46:12;;;;;;;;;1.00;0.00;;;;;17.14;100.00;100341.75;5074742;28;45543;-72
2022/10/15 03:48:37;;;;;;;;;0.00;0.00;;;;;16.84;100.00;100288.84;5051966;28;45394;-72
2022/10/15 03:51:02;;;;;;;;;0.00;0.00;;;;;17.15;100.00;100346.16;5038674;28;45599;-72
2022/10/15 03:53:28;;;;;;;;;0.00;0.00;;;;;17.15;100.00;100338.06;5056958;28;46445;-71
2022/10/15 03:55:53;;;;;;;;;0.00;0.00;;;;;17.14;100.00;100341.75;5057113;28;45423;-72
2022/10/15 03:58:19;;;;;;;;;0.00;0.00;;;;;17.14;100.00;100332.81;5040822;28;45347;-72
2022/10/15 04:00:44;;;;;;;;;0.00;0.00;;;;;17.13;100.00;100320.34;5075610;28;45283;-72
2022/10/15 04:03:09;;;;;;;;;0.00;0.00;;;;;17.09;100.00;100310.84;5077130;27;47306;-72
2022/10/15 04:05:35;;;;;;;;;0.00;0.00;;;;;17.12;100.00;100322.16;5077079;27;45454;-72
2022/10/15 04:08:01;;;;;;;;;1.00;0.00;;;;;17.13;100.00;100310.41;5077177;27;45397;-71
2022/10/15 04:10:28;;;;;;;;;0.33;0.00;;;;;17.11;100.00;100308.84;5076566;28;45349;-72
2022/10/15 04:12:53;;;;;;;;;0.00;0.00;;;;;17.01;100.00;100290.00;5077035;27;45463;-72
2022/10/15 04:15:19;;;;;;;;;0.00;0.00;;;;;17.14;100.00;100306.72;5076710;27;45359;-72
2022/10/15 04:17:44;;;;;;;;;0.00;0.00;;;;;17.15;100.00;100304.88;5076607;27;45322;-71
2022/10/15 04:20:10;;;;;;;;;0.00;0.00;;;;;17.15;100.00;100294.97;5092502;27;45480;-72
2022/10/15 04:22:36;;;;;;;;;0.00;0.00;;;;;17.14;100.00;100306.72;5076952;28;45349;-71
2022/10/15 04:25:01;;;;;;;;;0.00;0.00;;;;;17.14;100.00;100297.78;5070924;27;45299;-71
2022/10/15 04:27:27;;;;;;;;;0.00;0.00;;;;;17.18;100.00;100303.72;5078041;27;45824;-71
2022/10/15 04:29:52;;;;;;;;;0.00;0.00;;;;;16.80;100.00;100237.13;5076972;27;45270;-72
2022/10/15 04:32:17;;;;;;;;;0.33;0.33;;;;;17.19;100.00;100297.34;5076524;27;45384;-72
2022/10/15 04:34:45;;;;;;;;;1.00;1.00;;;;;17.25;100.00;100304.88;5076525;27;45308;-72
2022/10/15 04:37:10;;;;;;;;;0.00;0.00;;;;;17.25;100.00;100299.47;5076722;27;45392;-71
2022/10/15 04:39:35;;;;;;;;;0.00;0.00;;;;;17.26;100.00;100301.16;5076445;27;45408;-72
2022/10/15 04:42:01;;;;;;;;;1.00;1.00;;;;;17.25;100.00;100291.41;5076280;27;47231;-72
2022/10/15 04:44:26;;;;;;;;;0.67;0.67;;;;;17.27;100.00;100297.47;5076049;27;45399;-71
2022/10/15 04:46:51;;;;;;;;;2.33;1.00;;;;;17.31;100.00;100305.09;5076737;27;45278;-71
2022/10/15 04:49:17;;;;;;;;;1.33;1.33;;;;;17.29;100.00;100308.97;5074771;28;45376;-71
2022/10/15 04:51:42;;;;;;;;;1.33;1.33;;;;;17.31;100.00;100309.66;5076195;27;45574;-72
2022/10/15 04:54:07;;;;;;;;;1.00;1.00;;;;;17.33;100.00;100315.78;5076554;27;45375;-71
2022/10/15 04:56:33;;;;;;;;;2.00;1.00;;;;;17.27;100.00;100302.88;5076670;27;45402;-72
2022/10/15 04:58:58;;;;;;;;;0.00;0.00;;;;;17.29;100.00;100314.38;5076143;27;45418;-71
2022/10/15 05:01:23;;;;;;;;;0.00;0.00;;;;;17.27;100.00;100316.34;5050584;28;46366;-71
2022/10/15 05:03:49;;;;;;;;;0.67;0.67;;;;;17.07;100.00;100275.09;5052346;28;45509;-72
2022/10/15 05:06:19;;;;;;;;;1.00;0.00;;;;;17.32;100.00;100323.00;5055216;28;45423;-72
2022/10/15 05:08:46;;;;;;;;;0.00;0.00;;;;;17.35;100.00;100323.72;5051538;28;45677;-72
2022/10/15 05:11:18;;;;;;;;;0.00;0.00;;;;;17.28;100.00;100312.66;5052997;28;46083;-73
2022/10/15 05:13:43;;;;;;;;;0.00;0.00;;;;;17.15;100.00;100289.56;5069473;28;45521;-71
2022/10/15 05:16:09;;;;;;;;;0.00;0.00;;;;;17.34;100.00;100316.63;5075401;28;45351;-72
2022/10/15 05:18:34;;;;;;;;;0.00;0.00;;;;;17.25;100.00;100303.00;5076183;28;45354;-72
2022/10/15 05:21:03;;;;;;;;;0.00;0.00;;;;;17.31;100.00;100305.09;5063859;28;46064;-72
2022/10/15 05:23:28;;;;;;;;;0.00;0.00;;;;;17.36;100.00;100317.34;5052897;28;45363;-72
2022/10/15 05:25:53;;;;;;;;;0.00;0.00;;;;;17.06;100.00;100258.09;5075671;28;45393;-72
2022/10/15 05:28:19;;;;;;;;;0.00;0.00;;;;;17.40;100.00;100311.50;5075844;28;45531;-72
2022/10/15 05:30:44;;;;;;;;;2.33;0.00;;;;;17.35;100.00;100302.16;5076072;28;45466;-73
2022/10/15 05:33:10;;;;;;;;;0.00;0.00;;;;;16.81;100.00;100230.72;5052547;28;45663;-72
2022/10/15 05:35:36;;;;;;;;;0.00;0.00;;;;;17.31;100.00;100299.72;5054706;28;45308;-72
2022/10/15 05:38:03;;;;;;;;;0.00;0.00;;;;;16.47;100.00;100145.03;5044553;28;45431;-72
2022/10/15 05:40:28;;;;;;;;;0.00;0.00;;;;;17.47;100.00;100309.06;5037231;28;45495;-72
2022/10/15 05:42:53;;;;;;;;;0.00;0.00;;;;;17.48;100.00;100311.59;5035301;28;45299;-72
2022/10/15 05:45:19;;;;;;;;;0.00;0.00;;;;;17.53;100.00;100313.00;5034654;28;45347;-72
2022/10/15 05:47:44;;;;;;;;;0.00;0.00;;;;;17.53;100.00;100307.63;5055825;28;45496;-72
2022/10/15 05:50:10;;;;;;;;;0.00;0.00;;;;;17.48;100.00;100295.44;5075778;28;46306;-72
2022/10/15 05:52:35;;;;;;;;;0.00;0.00;;;;;17.54;100.00;100309.31;5075583;28;45533;-72
2022/10/15 05:55:00;;;;;;;;;0.00;0.00;;;;;17.43;100.00;100297.72;5075228;28;45645;-73
2022/10/15 05:57:26;;;;;;;;;1.00;0.00;;;;;17.44;100.00;100291.31;5075959;28;45488;-73
2022/10/15 05:59:51;;;;;;;;;0.00;0.00;;;;;17.26;100.00;100264.28;5067984;28;48218;-72
2022/10/15 06:02:16;;;;;;;;;2.00;0.33;;;;;17.54;100.00;100310.16;5075473;27;45466;-76
2022/10/15 06:04:42;;;;;;;;;0.00;0.00;;;;;17.60;100.00;100306.03;5075534;27;45401;-72
2022/10/15 06:07:07;;;;;;;;;0.00;0.00;;;;;17.59;100.00;100302.50;5075744;27;45500;-72
2022/10/15 06:09:33;;;;;;;;;0.00;0.00;;;;;17.55;100.00;100295.69;5074964;27;45456;-71
2022/10/15 06:11:58;;;;;;;;;0.00;0.00;;;;;17.59;100.00;100305.19;5075339;28;45367;-71
2022/10/15 06:14:23;;;;;;;;;0.00;0.00;;;;;17.63;100.00;100319.25;5075380;27;45428;-72
2022/10/15 06:16:49;;;;;;;;;0.00;0.00;;;;;17.64;100.00;100312.84;5073987;28;45608;-71
2022/10/15 06:19:15;;;;;;;;;1.00;0.00;;;;;17.61;100.00;100307.72;5075242;27;45587;-71
2022/10/15 06:21:40;;;;;;;;;0.00;0.00;;;;;17.60;100.00;100308.72;5075218;27;45389;-72
2022/10/15 06:24:05;;;;;;;;;0.00;0.00;;;;;17.62;100.00;100309.44;5075066;27;46876;-72
2022/10/15 06:26:31;;;;;;;;;0.67;0.00;;;;;17.65;100.00;100309.13;5090949;27;45354;-71
2022/10/15 06:28:58;;;;;;;;;0.00;0.00;;;;;17.63;100.00;100313.84;5075243;27;46076;-72
2022/10/15 06:31:23;;;;;;;;;0.00;0.00;;;;;17.64;100.00;100318.25;5074838;27;45382;-72
2022/10/15 06:33:49;;;;;;;;;0.00;0.00;;;;;17.65;100.00;100322.63;5073703;28;45247;-72
2022/10/15 06:36:14;;;;;;;;;0.00;0.00;;;;;17.23;100.00;100263.72;5075369;27;45444;-72
2022/10/15 06:38:41;;;;;;;;;0.00;0.00;;;;;17.63;100.00;100330.84;5074120;27;46011;-72
2022/10/15 06:41:07;;;;;;;;;0.00;0.00;;;;;17.61;100.00;100327.47;5074785;27;45598;-71
2022/10/15 06:43:32;;;;;;;;;2.00;2.00;;;;;17.64;100.00;100337.13;5074702;27;45305;-71
2022/10/15 06:45:59;;;;;;;;;1.00;1.00;;;;;17.66;100.00;100333.25;5070350;28;45681;-73
2022/10/15 06:48:25;;;;;;;;;0.67;0.67;;;;;17.66;100.00;100341.34;5072571;28;45510;-74
2022/10/15 06:50:50;;;;;;;;;0.00;0.00;;;;;17.68;100.00;100327.75;5074515;28;45715;-74
2022/10/15 06:53:15;;;;;;;;;0.33;0.33;;;;;17.68;100.00;100334.97;5074787;27;45423;-73
2022/10/15 06:55:41;;;;;;;;;0.00;0.00;;;;;17.69;100.00;100329.41;5073046;28;45386;-72
2022/10/15 06:58:06;;;;;;;;;0.00;0.00;;;;;17.69;100.00;100337.50;5074151;27;46230;-72
2022/10/15 07:00:32;;;;;;;;;0.00;0.00;;;;;17.65;100.00;100328.88;5074127;28;45371;-73
2022/10/15 07:03:02;;;;;;;;;0.00;0.00;;;;;17.46;100.00;100286.66;5074201;28;45544;-72
2022/10/15 07:05:27;;;;;;;;;0.00;0.00;;;;;17.79;100.00;100334.81;5057296;28;45595;-72
2022/10/15 07:07:54;;;;;;;;;0.00;0.00;;;;;17.82;100.00;100340.72;5072599;28;48253;-73
2022/10/15 07:10:20;;;;;;;;;0.00;0.00;;;;;17.88;100.00;100333.03;5065452;28;45360;-72
2022/10/15 07:12:46;;;;;;;;;0.00;0.00;;;;;17.91;100.00;100338.13;5054096;28;45294;-72
2022/10/15 07:15:12;;;;;;;;;0.00;0.00;;;;;17.93;100.00;100342.41;5054063;28;45486;-72
2022/10/15 07:17:38;;;;;;;;;0.00;0.00;;;;;17.91;100.00;100339.00;5053897;28;45439;-72
2022/10/15 07:20:04;;;;;;;;;0.00;0.00;;;;;17.60;100.00;100279.06;5067445;28;45379;-72
2022/10/15 07:22:29;;;;;;;;;0.00;0.00;;;;;18.06;100.00;100352.00;5055534;28;45406;-72
2022/10/15 07:24:55;;;;;;;;;0.00;0.00;;;;;17.74;100.00;100310.94;5056364;28;45632;-72
2022/10/15 07:27:20;;;;;;;;;0.00;0.00;;;;;17.97;100.00;100354.63;5055692;28;45420;-72
2022/10/15 07:29:46;;;;;;;;;0.00;0.00;;;;;18.15;100.00;100364.63;5074480;28;45304;-72
2022/10/15 07:32:11;;;;;;;;;0.00;0.00;;;;;18.24;100.00;100371.81;5073625;28;45354;-72
2022/10/15 07:34:36;;;;;;;;;0.00;0.00;;;;;18.24;100.00;100362.88;5074346;28;45642;-72
2022/10/15 07:37:02;;;;;;;;;0.00;0.00;;;;;18.26;100.00;100374.38;5074439;28;46329;-72
2022/10/15 07:39:27;;;;;;;;;0.33;0.00;;;;;18.19;100.00;100373.28;5074767;28;45404;-72
2022/10/15 07:41:53;;;;;;;;;0.00;0.00;;;;;18.09;100.00;100366.06;5073825;28;45490;-73
2022/10/15 07:44:18;;;;;;;;;0.00;0.00;;;;;18.24;100.00;100379.91;5074568;28;45701;-72
2022/10/15 07:46:43;;;;;;;;;0.00;0.00;;;;;18.30;100.00;100379.34;5064609;28;46245;-73
2022/10/15 07:49:10;;;;;;;;;0.00;0.00;;;;;18.32;100.00;100376.47;5077093;28;45385;-72
2022/10/15 07:51:35;;;;;;;;;0.00;0.00;;;;;18.12;100.00;100360.38;5059405;28;45401;-72
2022/10/15 07:54:01;;;;;;;;;0.00;0.00;;;;;18.15;100.00;100378.97;5077359;28;45360;-73
2022/10/15 07:56:26;;;;;;;;;0.00;0.00;;;;;18.20;100.00;100394.72;5076999;28;46223;-72
2022/10/15 07:58:51;;;;;;;;;0.00;0.00;;;;;18.15;100.00;100387.09;5077280;28;45361;-72
2022/10/15 08:01:19;;;;;;;;;0.00;0.00;;;;;18.21;100.00;100390.19;5059193;28;45677;-73
2022/10/15 08:03:45;;;;;;;;;0.00;0.00;;;;;18.21;100.00;100384.78;5076530;28;45476;-72
2022/10/15 08:06:11;;;;;;;;;1.00;0.00;;;;;17.80;100.00;100320.28;5076643;28;46035;-72
2022/10/15 08:08:36;;;;;;;;;0.33;0.00;;;;;18.36;100.00;100398.63;5076840;28;45529;-72
2022/10/15 08:11:13;;;;;;;;;0.67;0.67;;;;;18.45;100.00;100406.69;5062516;28;45604;-72
2022/10/15 08:13:40;;;;;;;;;0.00;0.00;;;;;18.33;100.00;100380.88;5056688;28;45663;-72
2022/10/15 08:16:10;;;;;;;;;0.00;0.00;;;;;18.43;100.00;100402.44;5069839;28;47481;-73
2022/10/15 08:18:36;;;;;;;;;0.00;0.00;;;;;18.20;100.00;100356.94;5057808;28;45945;-77
2022/10/15 08:21:03;;;;;;;;;0.00;0.00;;;;;18.52;100.00;100406.06;5057723;28;45603;-75
2022/10/15 08:23:29;;;;;;;;;0.00;0.00;;;;;18.62;100.00;100407.69;5056442;28;45538;-75
2022/10/15 08:25:56;;;;;;;;;0.00;0.00;;;;;18.65;100.00;100396.63;5038627;28;45363;-77
2022/10/15 08:28:22;;;;;;;;;0.00;0.00;;;;;18.85;98.54;100392.94;5021822;28;45318;-78
2022/10/15 08:30:47;;;;;;;;;0.00;0.00;;;;;19.02;96.98;100358.81;5050749;28;45711;-78
2022/10/15 08:33:13;;;;;;;;;0.00;0.00;;;;;20.83;91.21;100401.31;5036975;28;45465;-76
2022/10/15 08:35:42;;;;;;;;;0.00;0.00;;;;;21.14;83.14;100400.66;5054401;28;45400;-77
2022/10/15 08:38:09;;;;;;;;;1.00;0.00;;;;;21.32;83.25;100402.38;5061560;28;45481;-78
2022/10/15 08:40:35;;;;;;;;;0.00;0.00;;;;;22.92;78.16;100398.84;5059854;28;45361;-77
2022/10/15 08:43:01;;;;;;;;;0.00;0.00;;;;;26.49;64.28;100398.22;5063488;28;45368;-77
2022/10/15 08:45:44;;;;;;;;;0.00;0.00;;;;;27.89;59.20;100400.31;5055153;28;46106;-78
2022/10/15 08:48:20;;;;;;;;;0.00;0.00;;;;;29.63;50.39;100415.09;5046989;28;46208;-76
2022/10/15 08:50:50;;;;;;;;;0.00;0.00;;;;;29.85;50.10;100415.50;5065259;28;45366;-76
2022/10/15 08:53:22;;;;;;;;;0.00;0.00;;;;;29.33;48.99;100338.84;5070403;28;45522;-73
2022/10/15 08:55:50;;;;;;;;;0.00;0.00;;;;;29.29;49.58;100414.50;5062407;28;46817;-72
2022/10/15 08:58:29;;;;;;;;;1.00;0.00;;;;;30.11;49.76;100419.06;5070141;28;45920;-72
2022/10/15 09:01:08;;;;;;;;;0.00;0.00;;;;;30.01;48.04;100425.09;5074933;28;45413;-72
2022/10/15 09:03:37;;;;;;;;;0.00;0.00;;;;;29.17;47.76;100389.66;5075413;28;45385;-72
2022/10/15 09:06:24;;;;;;;;;0.00;0.00;;;;;28.82;49.88;100421.13;5075184;28;47215;-73
2022/10/15 09:09:20;;;;;;;;;1.00;0.00;;;;;25.72;57.50;100430.94;5070168;28;45417;-72
2022/10/15 09:12:04;;;;;;;;;0.00;0.00;;;;;26.00;58.33;100430.09;5072730;28;45497;-72
2022/10/15 09:14:37;;;;;;;;;0.00;0.00;;;;;25.40;58.82;100430.50;5075801;28;45411;-72
2022/10/15 09:17:13;;;;;;;;;0.00;0.00;;;;;25.73;57.19;100424.44;5075717;28;46559;-73
2022/10/15 09:19:41;;;;;;;;;0.00;0.00;;;;;24.70;60.88;100424.69;5075166;28;45409;-73
2022/10/15 09:22:13;;;;;;;;;0.00;0.00;;;;;23.73;64.41;100428.31;5075536;28;45292;-75
2022/10/15 09:24:39;;;;;;;;;0.00;0.00;;;;;23.13;67.66;100439.00;5076094;28;46069;-74
2022/10/15 09:27:11;;;;;;;;;0.00;0.00;;;;;22.34;70.02;100435.31;5055434;28;45664;-73
2022/10/15 09:29:46;;;;;;;;;0.00;0.00;;;;;21.83;72.98;100454.59;5073694;28;45386;-76
2022/10/15 09:32:30;;;;;;;;;0.00;0.00;;;;;21.47;73.91;100459.50;5056788;28;45538;-73
2022/10/15 09:35:03;;;;;;;;;0.00;0.00;;;;;20.96;76.59;100470.44;5052880;28;45709;-74
2022/10/15 09:37:37;;;;;;;;;0.00;0.00;;;;;20.66;77.79;100462.72;5067618;28;46496;-71
2022/10/15 09:40:08;;;;;;;;;0.00;0.00;;;;;20.54;78.81;100461.31;5061493;28;45489;-70
2022/10/15 09:42:38;;;;;;;;;0.00;0.00;;;;;20.41;79.97;100455.50;5062114;28;45470;-71
2022/10/15 09:45:09;;;;;;;;;0.00;0.00;;;;;20.23;81.04;100461.88;5055503;28;45585;-74
2022/10/15 09:47:35;;;;;;;;;0.00;0.00;;;;;20.09;82.83;100462.44;5073377;28;45579;-74
2022/10/15 09:50:06;;;;;;;;;2.67;1.00;;;;;20.06;83.58;100463.63;5056732;28;45604;-73
2022/10/15 09:52:52;;;;;;;;;0.00;0.00;;;;;20.08;83.24;100472.44;5089789;27;45454;-73
2022/10/15 09:55:41;;;;;;;;;0.00;0.00;;;;;20.02;84.41;100475.78;5074000;28;45542;-73
2022/10/15 09:58:19;;;;;;;;;0.00;0.00;;;;;19.77;85.91;100478.28;5044046;28;47404;-74
2022/10/15 10:01:15;;;;;;;;;0.00;0.00;;;;;19.77;87.06;100507.19;5073155;28;45461;-73
2022/10/15 10:03:41;;;;;;;;;0.00;0.00;;;;;19.66;87.84;100508.28;5063122;28;45516;-72
2022/10/15 10:06:09;;;;;;;;;0.00;0.00;;;;;19.83;88.33;100512.84;5073453;28;45663;-72
2022/10/15 10:08:56;;;;;;;;;0.00;0.00;;;;;19.97;87.36;100524.97;5070163;28;47123;-70
2022/10/15 10:11:24;;;;;;;;;0.00;0.00;;;;;19.98;85.62;100536.66;5065234;28;45472;-71
2022/10/15 10:13:58;;;;;;;;;0.00;0.00;;;;;19.93;85.65;100529.00;5072352;28;45697;-71
2022/10/15 10:16:25;;;;;;;;;0.00;0.00;;;;;19.77;84.33;100509.88;5072518;28;45477;-73
2022/10/15 10:19:20;;;;;;;;;0.00;0.00;;;;;19.65;83.96;100514.69;5072155;28;45535;-71
2022/10/15 10:21:45;;;;;;;;;0.00;0.00;;;;;19.85;83.77;100523.50;5019698;28;45475;-72
2022/10/15 10:24:29;;;;;;;;;0.00;0.00;;;;;19.79;82.77;100526.84;5072944;28;45387;-73
2022/10/15 10:26:54;;;;;;;;;0.67;0.00;;;;;19.78;82.57;100523.25;5072179;28;45530;-71
2022/10/15 10:29:22;;;;;;;;;0.00;0.00;;;;;19.85;81.99;100530.78;5072538;28;45584;-71
2022/10/15 10:31:50;;;;;;;;;0.00;0.00;;;;;19.89;81.35;100530.31;5072005;28;45482;-72
2022/10/15 10:34:29;;;;;;;;;0.00;0.00;;;;;19.94;80.57;100533.41;5053274;28;45850;-71
2022/10/15 10:36:55;;;;;;;;;0.00;0.00;;;;;20.05;81.25;100535.00;5073254;28;45351;-72
2022/10/15 10:39:27;;;;;;;;;0.00;0.00;;;;;20.09;81.56;100533.69;5072695;28;45461;-73
2022/10/15 10:41:59;;;;;;;;;0.00;0.00;;;;;20.20;79.97;100537.16;5053680;28;46288;-71
2022/10/15 10:44:36;;;;;;;;;0.00;0.00;;;;;20.43;79.42;100540.16;5088073;27;45562;-72
2022/10/15 10:47:05;;;;;;;;;0.00;0.00;;;;;20.59;80.34;100531.28;5072236;28;45494;-71
2022/10/15 10:49:33;;;;;;;;;0.00;0.00;;;;;20.68;78.43;100535.72;5071737;28;45512;-73
2022/10/15 10:51:58;;;;;;;;;0.00;0.00;;;;;20.58;74.70;100541.28;5072103;28;45433;-72
2022/10/15 10:54:27;;;;;;;;;0.00;0.00;;;;;19.71;74.80;100453.72;5057211;28;45691;-72
2022/10/15 10:56:53;;;;;;;;;0.00;0.00;;;;;20.13;75.96;100556.72;5068189;27;45421;-72
2022/10/15 10:59:26;;;;;;;;;0.00;0.00;;;;;19.92;77.44;100548.09;5077636;27;46538;-73
2022/10/15 11:01:52;;;;;;;;;0.00;0.00;;;;;19.86;77.43;100556.84;5077061;27;45446;-72
2022/10/15 11:04:23;;;;;;;;;0.00;0.00;;;;;19.23;77.47;100472.91;5087162;27;45411;-72
2022/10/15 11:07:07;;;;;;;;;0.00;0.00;;;;;19.70;79.43;100563.78;5084824;27;45448;-73
2022/10/15 11:10:03;;;;;;;;;1.00;0.00;;;;;19.51;79.28;100567.50;5085475;27;46170;-73
2022/10/15 11:12:40;;;;;;;;;0.00;0.00;;;;;19.38;81.64;100570.59;5084337;27;45476;-72
2022/10/15 11:15:11;;;;;;;;;0.00;0.00;;;;;19.38;83.21;100564.31;5085794;27;45417;-71
2022/10/15 11:18:16;;;;;;;;;0.00;0.00;;;;;19.32;83.84;100572.03;5075673;27;45532;-71
2022/10/15 11:20:41;;;;;;;;;0.00;0.00;;;;;19.37;84.28;100574.28;5089403;27;46293;-73
2022/10/15 11:23:21;;;;;;;;;1.00;0.00;;;;;19.36;84.45;100578.00;5083075;27;45392;-73
2022/10/15 11:26:17;;;;;;;;;0.00;0.00;;;;;19.36;82.74;100572.56;5084348;27;45535;-74
2022/10/15 11:29:05;;;;;;;;;0.00;0.00;;;;;19.49;83.55;100570.34;5073380;28;45681;-73